sensor_id;sensor_type;location;lat;lon;timestamp;pressure;altitude;pressure_sealevel;temperature;humidity
77207;BME280;66190;50.708;7.906;2023-10-08T00:01:35;97130.63;;;15.17;81.73
77207;BME280;66190;50.708;7.906;2023-10-08T00:04:00;97127.31;;;15.15;81.70
77207;BME280;66190;50.708;7.906;2023-10-08T00:06:29;97138.56;;;15.12;81.87
77207;BME280;66190;50.708;7.906;2023-10-08T00:08:55;97127.50;;;15.20;81.55
77207;BME280;66190;50.708;7.906;2023-10-08T00:11:25;97125.22;;;15.10;81.67
77207;BME280;66190;50.708;7.906;2023-10-08T00:13:51;97137.97;;;15.10;81.25
77207;BME280;66190;50.708;7.906;2023-10-08T00:16:21;97138.16;;;15.15;81.32
77207;BME280;66190;50.708;7.906;2023-10-08T00:18:47;97125.66;;;15.07;81.01
77207;BME280;66190;50.708;7.906;2023-10-08T00:21:19;97135.88;;;15.05;81.36
77207;BME280;66190;50.708;7.906;2023-10-08T00:23:51;97132.31;;;15.05;81.06
77207;BME280;66190;50.708;7.906;2023-10-08T00:26:25;97127.56;;;15.00;80.78
77207;BME280;66190;50.708;7.906;2023-10-08T00:29:00;97132.75;;;15.02;80.87
77207;BME280;66190;50.708;7.906;2023-10-08T00:31:26;97128.41;;;15.01;81.18
77207;BME280;66190;50.708;7.906;2023-10-08T00:34:11;97137.56;;;15.00;80.88
77207;BME280;66190;50.708;7.906;2023-10-08T00:36:39;97129.22;;;14.95;81.27
77207;BME280;66190;50.708;7.906;2023-10-08T00:39:07;97122.78;;;14.96;81.10
77207;BME280;66190;50.708;7.906;2023-10-08T00:41:38;97125.50;;;14.96;81.13
77207;BME280;66190;50.708;7.906;2023-10-08T00:44:07;97132.16;;;14.93;81.44
77207;BME280;66190;50.708;7.906;2023-10-08T00:46:33;97131.13;;;14.94;81.33
77207;BME280;66190;50.708;7.906;2023-10-08T00:49:08;97135.72;;;14.94;81.38
77207;BME280;66190;50.708;7.906;2023-10-08T00:51:54;97130.50;;;14.92;81.46
77207;BME280;66190;50.708;7.906;2023-10-08T00:54:50;97133.03;;;14.87;82.12
77207;BME280;66190;50.708;7.906;2023-10-08T00:57:30;97138.63;;;14.86;82.04
77207;BME280;66190;50.708;7.906;2023-10-08T00:59:59;97138.44;;;14.80;82.47
77207;BME280;66190;50.708;7.906;2023-10-08T01:02:26;97134.31;;;14.78;82.40
77207;BME280;66190;50.708;7.906;2023-10-08T01:04:54;97139.13;;;14.69;82.86
77207;BME280;66190;50.708;7.906;2023-10-08T01:07:20;97140.13;;;14.68;83.10
77207;BME280;66190;50.708;7.906;2023-10-08T01:09:46;97145.16;;;14.71;82.98
77207;BME280;66190;50.708;7.906;2023-10-08T01:12:24;97140.56;;;14.72;82.75
77207;BME280;66190;50.708;7.906;2023-10-08T01:14:52;97147.66;;;14.60;83.09
77207;BME280;66190;50.708;7.906;2023-10-08T01:17:30;97159.75;;;14.57;83.26
77207;BME280;66190;50.708;7.906;2023-10-08T01:19:58;97156.84;;;14.52;83.32
77207;BME280;66190;50.708;7.906;2023-10-08T01:22:34;97156.00;;;14.52;83.54
77207;BME280;66190;50.708;7.906;2023-10-08T01:24:59;97148.72;;;14.52;83.22
77207;BME280;66190;50.708;7.906;2023-10-08T01:27:30;97146.22;;;14.51;84.06
77207;BME280;66190;50.708;7.906;2023-10-08T01:30:00;97139.97;;;14.50;83.86
77207;BME280;66190;50.708;7.906;2023-10-08T01:32:37;97128.50;;;14.55;83.54
77207;BME280;66190;50.708;7.906;2023-10-08T01:35:03;97126.03;;;14.47;83.73
77207;BME280;66190;50.708;7.906;2023-10-08T01:37:33;97126.84;;;14.54;83.35
77207;BME280;66190;50.708;7.906;2023-10-08T01:39:59;97132.69;;;14.57;83.26
77207;BME280;66190;50.708;7.906;2023-10-08T01:42:27;97133.50;;;14.58;83.15
77207;BME280;66190;50.708;7.906;2023-10-08T01:44:53;97130.38;;;14.54;83.15
77207;BME280;66190;50.708;7.906;2023-10-08T01:47:23;97135.19;;;14.52;83.56
77207;BME280;66190;50.708;7.906;2023-10-08T01:49:50;97125.63;;;14.43;83.22
77207;BME280;66190;50.708;7.906;2023-10-08T01:52:19;97131.66;;;14.39;83.90
77207;BME280;66190;50.708;7.906;2023-10-08T01:54:48;97147.91;;;14.26;83.97
77207;BME280;66190;50.708;7.906;2023-10-08T01:57:14;97126.88;;;14.28;83.89
77207;BME280;66190;50.708;7.906;2023-10-08T01:59:40;97114.38;;;14.27;84.25
77207;BME280;66190;50.708;7.906;2023-10-08T02:02:06;97122.47;;;14.20;83.99
77207;BME280;66190;50.708;7.906;2023-10-08T02:04:35;97140.56;;;14.20;84.35
77207;BME280;66190;50.708;7.906;2023-10-08T02:07:04;97141.22;;;14.22;84.26
77207;BME280;66190;50.708;7.906;2023-10-08T02:09:30;97124.56;;;14.18;84.05
77207;BME280;66190;50.708;7.906;2023-10-08T02:11:56;97130.38;;;14.22;83.68
77207;BME280;66190;50.708;7.906;2023-10-08T02:14:22;97141.41;;;14.20;83.58
77207;BME280;66190;50.708;7.906;2023-10-08T02:16:51;97145.56;;;14.16;84.00
77207;BME280;66190;50.708;7.906;2023-10-08T02:19:22;97138.50;;;14.15;83.34
77207;BME280;66190;50.708;7.906;2023-10-08T02:21:53;97138.28;;;14.23;83.42
77207;BME280;66190;50.708;7.906;2023-10-08T02:24:20;97132.06;;;14.23;83.52
77207;BME280;66190;50.708;7.906;2023-10-08T02:26:47;97147.47;;;14.16;83.07
77207;BME280;66190;50.708;7.906;2023-10-08T02:29:13;97139.31;;;14.09;83.43
77207;BME280;66190;50.708;7.906;2023-10-08T02:31:39;97157.84;;;13.99;83.50
77207;BME280;66190;50.708;7.906;2023-10-08T02:34:08;97157.66;;;14.07;83.28
77207;BME280;66190;50.708;7.906;2023-10-08T02:36:37;97151.84;;;14.04;83.79
77207;BME280;66190;50.708;7.906;2023-10-08T02:39:07;97151.59;;;13.99;83.11
77207;BME280;66190;50.708;7.906;2023-10-08T02:41:46;97155.34;;;14.04;83.25
77207;BME280;66190;50.708;7.906;2023-10-08T02:44:13;97151.41;;;14.00;83.34
77207;BME280;66190;50.708;7.906;2023-10-08T02:46:43;97148.91;;;14.05;83.01
77207;BME280;66190;50.708;7.906;2023-10-08T02:49:10;97151.63;;;14.05;82.75
77207;BME280;66190;50.708;7.906;2023-10-08T02:51:40;97160.34;;;14.01;83.46
77207;BME280;66190;50.708;7.906;2023-10-08T02:54:09;97163.91;;;14.01;83.34
77207;BME280;66190;50.708;7.906;2023-10-08T02:56:43;97175.34;;;14.03;83.28
77207;BME280;66190;50.708;7.906;2023-10-08T02:59:10;97172.66;;;14.03;83.33
77207;BME280;66190;50.708;7.906;2023-10-08T03:01:37;97177.22;;;14.09;83.76
77207;BME280;66190;50.708;7.906;2023-10-08T03:04:06;97172.44;;;14.11;83.66
77207;BME280;66190;50.708;7.906;2023-10-08T03:06:40;97173.69;;;14.15;84.00
77207;BME280;66190;50.708;7.906;2023-10-08T03:09:06;97185.38;;;14.16;84.24
77207;BME280;66190;50.708;7.906;2023-10-08T03:11:33;97186.19;;;14.23;84.76
77207;BME280;66190;50.708;7.906;2023-10-08T03:14:00;97175.16;;;14.24;84.40
77207;BME280;66190;50.708;7.906;2023-10-08T03:16:25;97166.00;;;14.25;84.38
77207;BME280;66190;50.708;7.906;2023-10-08T03:19:00;97163.09;;;14.27;83.91
77207;BME280;66190;50.708;7.906;2023-10-08T03:21:26;97155.00;;;14.33;83.35
77207;BME280;66190;50.708;7.906;2023-10-08T03:24:04;97153.50;;;14.37;83.63
77207;BME280;66190;50.708;7.906;2023-10-08T03:26:40;97166.84;;;14.39;84.37
77207;BME280;66190;50.708;7.906;2023-10-08T03:29:10;97163.53;;;14.43;81.93
77207;BME280;66190;50.708;7.906;2023-10-08T03:31:41;97157.25;;;14.49;82.80
77207;BME280;66190;50.708;7.906;2023-10-08T03:34:14;97139.34;;;14.48;83.28
77207;BME280;66190;50.708;7.906;2023-10-08T03:36:40;97141.00;;;14.49;83.04
77207;BME280;66190;50.708;7.906;2023-10-08T03:39:16;97144.34;;;14.51;82.81
77207;BME280;66190;50.708;7.906;2023-10-08T03:41:45;97134.97;;;14.47;84.01
77207;BME280;66190;50.708;7.906;2023-10-08T03:44:23;97132.28;;;14.41;83.09
77207;BME280;66190;50.708;7.906;2023-10-08T03:46:50;97129.75;;;14.46;82.94
77207;BME280;66190;50.708;7.906;2023-10-08T03:49:17;97133.94;;;14.48;82.29
77207;BME280;66190;50.708;7.906;2023-10-08T03:51:45;97130.19;;;14.43;82.72
77207;BME280;66190;50.708;7.906;2023-10-08T03:54:11;97130.19;;;14.43;82.66
77207;BME280;66190;50.708;7.906;2023-10-08T03:56:40;97146.84;;;14.46;82.68
77207;BME280;66190;50.708;7.906;2023-10-08T03:59:11;97150.59;;;14.39;83.25
77207;BME280;66190;50.708;7.906;2023-10-08T04:01:42;97165.00;;;14.33;83.07
77207;BME280;66190;50.708;7.906;2023-10-08T04:04:09;97165.63;;;14.35;83.38
77207;BME280;66190;50.708;7.906;2023-10-08T04:06:41;97174.97;;;14.32;83.98
77207;BME280;66190;50.708;7.906;2023-10-08T04:09:15;97171.25;;;14.33;83.60
77207;BME280;66190;50.708;7.906;2023-10-08T04:12:00;97172.91;;;14.34;82.71
77207;BME280;66190;50.708;7.906;2023-10-08T04:14:36;97177.06;;;14.43;82.55
77207;BME280;66190;50.708;7.906;2023-10-08T04:17:01;97174.16;;;14.45;82.35
77207;BME280;66190;50.708;7.906;2023-10-08T04:19:27;97172.25;;;14.52;81.87
77207;BME280;66190;50.708;7.906;2023-10-08T04:21:53;97166.84;;;14.52;81.95
77207;BME280;66190;50.708;7.906;2023-10-08T04:24:27;97159.34;;;14.54;81.53
77207;BME280;66190;50.708;7.906;2023-10-08T04:27:02;97137.28;;;14.50;81.13
77207;BME280;66190;50.708;7.906;2023-10-08T04:29:31;97157.03;;;14.51;81.17
77207;BME280;66190;50.708;7.906;2023-10-08T04:32:01;97163.94;;;14.53;81.00
77207;BME280;66190;50.708;7.906;2023-10-08T04:34:30;97177.25;;;14.55;81.43
77207;BME280;66190;50.708;7.906;2023-10-08T04:36:58;97194.75;;;14.59;81.29
77207;BME280;66190;50.708;7.906;2023-10-08T04:39:26;97181.44;;;14.57;80.59
77207;BME280;66190;50.708;7.906;2023-10-08T04:41:59;97180.16;;;14.60;80.39
77207;BME280;66190;50.708;7.906;2023-10-08T04:44:31;97166.81;;;14.65;80.22
77207;BME280;66190;50.708;7.906;2023-10-08T04:46:57;97171.00;;;14.67;79.82
77207;BME280;66190;50.708;7.906;2023-10-08T04:49:30;97140.13;;;14.68;79.97
77207;BME280;66190;50.708;7.906;2023-10-08T04:51:57;97139.13;;;14.69;80.40
77207;BME280;66190;50.708;7.906;2023-10-08T04:54:24;97127.25;;;14.64;80.48
77207;BME280;66190;50.708;7.906;2023-10-08T04:56:49;97134.97;;;14.60;80.79
77207;BME280;66190;50.708;7.906;2023-10-08T04:59:16;97111.00;;;14.57;80.28
77207;BME280;66190;50.708;7.906;2023-10-08T05:01:47;97124.97;;;14.54;80.38
77207;BME280;66190;50.708;7.906;2023-10-08T05:04:14;97116.84;;;14.54;80.58
77207;BME280;66190;50.708;7.906;2023-10-08T05:06:49;97131.84;;;14.44;81.11
77207;BME280;66190;50.708;7.906;2023-10-08T05:09:15;97144.78;;;14.42;81.56
77207;BME280;66190;50.708;7.906;2023-10-08T05:11:47;97133.09;;;14.28;81.60
77207;BME280;66190;50.708;7.906;2023-10-08T05:14:19;97143.97;;;14.35;81.91
77207;BME280;66190;50.708;7.906;2023-10-08T05:17:01;97157.69;;;14.27;82.10
77207;BME280;66190;50.708;7.906;2023-10-08T05:19:41;97180.81;;;14.29;81.77
77207;BME280;66190;50.708;7.906;2023-10-08T05:22:16;97181.81;;;14.22;82.21
77207;BME280;66190;50.708;7.906;2023-10-08T05:25:05;97200.13;;;14.20;82.63
77207;BME280;66190;50.708;7.906;2023-10-08T05:27:52;97207.44;;;14.19;82.15
77207;BME280;66190;50.708;7.906;2023-10-08T05:30:20;97198.47;;;14.25;81.81
77207;BME280;66190;50.708;7.906;2023-10-08T05:33:08;97216.84;;;14.30;81.58
77207;BME280;66190;50.708;7.906;2023-10-08T05:35:35;97212.44;;;14.35;81.90
77207;BME280;66190;50.708;7.906;2023-10-08T05:38:14;97206.44;;;14.40;81.40
77207;BME280;66190;50.708;7.906;2023-10-08T05:40:55;97217.66;;;14.37;81.43
77207;BME280;66190;50.708;7.906;2023-10-08T05:43:36;97191.81;;;14.47;81.20
77207;BME280;66190;50.708;7.906;2023-10-08T05:46:04;97196.22;;;14.48;81.38
77207;BME280;66190;50.708;7.906;2023-10-08T05:48:52;97210.38;;;14.50;81.24
77207;BME280;66190;50.708;7.906;2023-10-08T05:51:37;97213.91;;;14.51;81.50
77207;BME280;66190;50.708;7.906;2023-10-08T05:56:53;97185.38;;;14.48;81.37
77207;BME280;66190;50.708;7.906;2023-10-08T05:59:44;97185.38;;;14.48;81.24
77207;BME280;66190;50.708;7.906;2023-10-08T06:02:26;97190.59;;;14.50;81.83
77207;BME280;66190;50.708;7.906;2023-10-08T06:05:05;97208.50;;;14.51;81.66
77207;BME280;66190;50.708;7.906;2023-10-08T06:07:46;97203.28;;;14.49;81.99
77207;BME280;66190;50.708;7.906;2023-10-08T06:10:22;97196.22;;;14.48;81.63
77207;BME280;66190;50.708;7.906;2023-10-08T06:15:50;97229.31;;;14.44;81.90
77207;BME280;66190;50.708;7.906;2023-10-08T06:18:19;97241.22;;;14.43;82.38
77207;BME280;66190;50.708;7.906;2023-10-08T06:20:45;97239.56;;;14.42;81.19
77207;BME280;66190;50.708;7.906;2023-10-08T06:23:12;97244.53;;;14.51;81.60
77207;BME280;66190;50.708;7.906;2023-10-08T06:25:41;97233.06;;;14.49;81.01
77207;BME280;66190;50.708;7.906;2023-10-08T06:28:17;97252.25;;;14.54;81.06
77207;BME280;66190;50.708;7.906;2023-10-08T06:30:49;97255.16;;;14.59;80.30
77207;BME280;66190;50.708;7.906;2023-10-08T06:33:22;97247.25;;;14.58;80.96
77207;BME280;66190;50.708;7.906;2023-10-08T06:35:48;97246.81;;;14.54;80.50
77207;BME280;66190;50.708;7.906;2023-10-08T06:38:32;97247.44;;;14.56;81.38
77207;BME280;66190;50.708;7.906;2023-10-08T06:41:02;97232.03;;;14.57;80.95
77207;BME280;66190;50.708;7.906;2023-10-08T06:43:49;97231.63;;;14.60;81.07
77207;BME280;66190;50.708;7.906;2023-10-08T06:46:15;97237.47;;;14.57;80.50
77207;BME280;66190;50.708;7.906;2023-10-08T06:48:45;97239.31;;;14.63;80.43
77207;BME280;66190;50.708;7.906;2023-10-08T06:51:12;97237.25;;;14.58;80.79
77207;BME280;66190;50.708;7.906;2023-10-08T06:53:44;97231.81;;;14.65;80.51
77207;BME280;66190;50.708;7.906;2023-10-08T06:56:10;97228.91;;;14.66;80.64
77207;BME280;66190;50.708;7.906;2023-10-08T06:58:38;97219.53;;;14.69;80.68
77207;BME280;66190;50.708;7.906;2023-10-08T07:01:04;97227.44;;;14.70;80.57
77207;BME280;66190;50.708;7.906;2023-10-08T07:03:31;97215.38;;;14.60;80.90
77207;BME280;66190;50.708;7.906;2023-10-08T07:05:58;97230.41;;;14.56;81.28
77207;BME280;66190;50.708;7.906;2023-10-08T07:08:26;97228.91;;;14.60;80.93
77207;BME280;66190;50.708;7.906;2023-10-08T07:10:53;97221.19;;;14.63;81.00
77207;BME280;66190;50.708;7.906;2023-10-08T07:13:22;97231.44;;;14.68;80.80
77207;BME280;66190;50.708;7.906;2023-10-08T07:15:54;97230.78;;;14.72;80.90
77207;BME280;66190;50.708;7.906;2023-10-08T07:18:20;97241.00;;;14.70;80.89
77207;BME280;66190;50.708;7.906;2023-10-08T07:20:55;97242.44;;;14.79;80.44
77207;BME280;66190;50.708;7.906;2023-10-08T07:23:24;97247.66;;;14.74;80.70
77207;BME280;66190;50.708;7.906;2023-10-08T07:26:01;97259.34;;;14.82;80.40
77207;BME280;66190;50.708;7.906;2023-10-08T07:28:43;97254.56;;;14.84;80.76
77207;BME280;66190;50.708;7.906;2023-10-08T07:31:15;97255.78;;;14.81;80.22
77207;BME280;66190;50.708;7.906;2023-10-08T07:33:55;97245.78;;;14.82;80.81
77207;BME280;66190;50.708;7.906;2023-10-08T07:36:27;97255.16;;;14.72;80.61
77207;BME280;66190;50.708;7.906;2023-10-08T07:38:53;97259.75;;;14.92;79.95
77207;BME280;66190;50.708;7.906;2023-10-08T07:41:19;97255.78;;;14.81;80.47
77207;BME280;66190;50.708;7.906;2023-10-08T07:43:46;97252.66;;;14.71;80.72
77207;BME280;66190;50.708;7.906;2023-10-08T07:46:22;97247.22;;;14.84;80.45
77207;BME280;66190;50.708;7.906;2023-10-08T07:48:47;97242.03;;;14.82;80.04
77207;BME280;66190;50.708;7.906;2023-10-08T07:51:16;97236.81;;;14.88;80.26
77207;BME280;66190;50.708;7.906;2023-10-08T07:53:48;97241.19;;;14.95;80.06
77207;BME280;66190;50.708;7.906;2023-10-08T07:56:13;97250.56;;;14.86;79.93
77207;BME280;66190;50.708;7.906;2023-10-08T07:58:39;97261.81;;;14.96;80.27
77207;BME280;66190;50.708;7.906;2023-10-08T08:01:06;97281.19;;;15.00;80.39
77207;BME280;66190;50.708;7.906;2023-10-08T08:03:33;97274.50;;;15.09;80.12
77207;BME280;66190;50.708;7.906;2023-10-08T08:06:00;97285.97;;;15.17;79.84
77207;BME280;66190;50.708;7.906;2023-10-08T08:08:26;97270.75;;;15.16;78.74
77207;BME280;66190;50.708;7.906;2023-10-08T08:10:53;97261.75;;;15.22;78.99
77207;BME280;66190;50.708;7.906;2023-10-08T08:13:23;97273.69;;;15.15;79.54
77207;BME280;66190;50.708;7.906;2023-10-08T08:15:54;97301.00;;;15.13;79.14
77207;BME280;66190;50.708;7.906;2023-10-08T08:18:26;97298.47;;;15.25;80.42
77207;BME280;66190;50.708;7.906;2023-10-08T08:20:58;97268.44;;;15.26;79.90
77207;BME280;66190;50.708;7.906;2023-10-08T08:23:30;97304.06;;;15.36;80.78
77207;BME280;66190;50.708;7.906;2023-10-08T08:25:57;97304.53;;;15.40;79.85
77207;BME280;66190;50.708;7.906;2023-10-08T08:28:37;97302.22;;;15.43;78.73
77207;BME280;66190;50.708;7.906;2023-10-08T08:31:04;97299.28;;;15.45;78.81
77207;BME280;66190;50.708;7.906;2023-10-08T08:33:31;97298.44;;;15.57;78.92
77207;BME280;66190;50.708;7.906;2023-10-08T08:36:16;97300.50;;;15.55;78.60
77207;BME280;66190;50.708;7.906;2023-10-08T08:38:42;97300.13;;;15.39;78.17
77207;BME280;66190;50.708;7.906;2023-10-08T08:41:08;97281.53;;;15.62;78.19
77207;BME280;66190;50.708;7.906;2023-10-08T08:43:38;97292.28;;;15.81;79.14
77207;BME280;66190;50.708;7.906;2023-10-08T08:46:10;97281.22;;;15.89;76.73
77207;BME280;66190;50.708;7.906;2023-10-08T08:48:40;97300.09;;;16.09;76.90
77207;BME280;66190;50.708;7.906;2023-10-08T08:51:06;97300.78;;;15.98;76.22
77207;BME280;66190;50.708;7.906;2023-10-08T08:53:36;97297.28;;;15.91;76.69
77207;BME280;66190;50.708;7.906;2023-10-08T08:56:01;97296.50;;;15.71;77.86
77207;BME280;66190;50.708;7.906;2023-10-08T08:58:33;97287.06;;;15.80;78.41
77207;BME280;66190;50.708;7.906;2023-10-08T09:01:00;97289.88;;;15.54;78.76
77207;BME280;66190;50.708;7.906;2023-10-08T09:03:25;97292.78;;;15.59;78.39
77207;BME280;66190;50.708;7.906;2023-10-08T09:05:56;97298.59;;;15.75;78.21
77207;BME280;66190;50.708;7.906;2023-10-08T09:08:22;97300.00;;;15.91;78.16
77207;BME280;66190;50.708;7.906;2023-10-08T09:10:49;97295.41;;;15.85;78.43
77207;BME280;66190;50.708;7.906;2023-10-08T09:13:21;97304.63;;;16.22;78.25
77207;BME280;66190;50.708;7.906;2023-10-08T09:15:48;97299.06;;;16.10;78.84
77207;BME280;66190;50.708;7.906;2023-10-08T09:18:14;97302.13;;;16.20;78.87
77207;BME280;66190;50.708;7.906;2023-10-08T09:20:39;97309.50;;;16.51;77.92
77207;BME280;66190;50.708;7.906;2023-10-08T09:23:10;97304.94;;;16.76;77.59
77207;BME280;66190;50.708;7.906;2023-10-08T09:25:43;97304.53;;;16.72;77.02
77207;BME280;66190;50.708;7.906;2023-10-08T09:28:09;97314.59;;;16.96;77.53
77207;BME280;66190;50.708;7.906;2023-10-08T09:30:35;97317.72;;;17.00;76.70
77207;BME280;66190;50.708;7.906;2023-10-08T09:33:06;97299.06;;;17.03;76.85
77207;BME280;66190;50.708;7.906;2023-10-08T09:35:32;97302.44;;;16.74;77.00
77207;BME280;66190;50.708;7.906;2023-10-08T09:38:00;97304.00;;;16.88;77.01
77207;BME280;66190;50.708;7.906;2023-10-08T09:40:27;97294.34;;;16.92;76.62
77207;BME280;66190;50.708;7.906;2023-10-08T09:42:54;97309.69;;;16.80;77.53
77207;BME280;66190;50.708;7.906;2023-10-08T09:45:20;97316.81;;;16.81;77.94
77207;BME280;66190;50.708;7.906;2023-10-08T09:47:53;97319.91;;;16.60;78.36
77207;BME280;66190;50.708;7.906;2023-10-08T09:50:29;97310.72;;;16.55;79.74
77207;BME280;66190;50.708;7.906;2023-10-08T09:53:11;97308.47;;;16.52;79.50
77207;BME280;66190;50.708;7.906;2023-10-08T09:55:57;97324.88;;;16.63;79.16
77207;BME280;66190;50.708;7.906;2023-10-08T09:58:25;97327.78;;;16.68;79.85
77207;BME280;66190;50.708;7.906;2023-10-08T10:00:54;97325.16;;;16.86;79.71
77207;BME280;66190;50.708;7.906;2023-10-08T10:03:20;97327.03;;;17.11;78.73
77207;BME280;66190;50.708;7.906;2023-10-08T10:05:48;97335.44;;;17.27;78.16
77207;BME280;66190;50.708;7.906;2023-10-08T10:08:14;97343.44;;;17.22;76.05
77207;BME280;66190;50.708;7.906;2023-10-08T10:10:40;97347.00;;;17.72;76.19
77207;BME280;66190;50.708;7.906;2023-10-08T10:13:12;97351.50;;;18.14;74.96
77207;BME280;66190;50.708;7.906;2023-10-08T10:15:38;97354.63;;;17.81;74.56
77207;BME280;66190;50.708;7.906;2023-10-08T10:20:40;97369.13;;;18.30;74.91
77207;BME280;66190;50.708;7.906;2023-10-08T10:23:43;97366.44;;;18.11;75.04
77207;BME280;66190;50.708;7.906;2023-10-08T10:31:50;97368.63;;;18.98;73.57
77207;BME280;66190;50.708;7.906;2023-10-08T10:34:23;97379.28;;;18.88;72.76
77207;BME280;66190;50.708;7.906;2023-10-08T10:36:53;97376.75;;;18.87;72.96
77207;BME280;66190;50.708;7.906;2023-10-08T10:39:25;97385.63;;;18.82;73.35
77207;BME280;66190;50.708;7.906;2023-10-08T10:42:00;97390.38;;;18.87;72.47
77207;BME280;66190;50.708;7.906;2023-10-08T10:44:30;97385.41;;;18.54;73.54
77207;BME280;66190;50.708;7.906;2023-10-08T10:46:56;97382.22;;;18.39;75.54
77207;BME280;66190;50.708;7.906;2023-10-08T10:49:41;97375.88;;;18.09;74.81
77207;BME280;66190;50.708;7.906;2023-10-08T10:52:28;97374.47;;;18.06;77.44
77207;BME280;66190;50.708;7.906;2023-10-08T10:55:07;97361.44;;;18.08;77.06
77207;BME280;66190;50.708;7.906;2023-10-08T10:57:56;97362.25;;;18.09;76.17
77207;BME280;66190;50.708;7.906;2023-10-08T11:00:30;97364.47;;;18.19;76.67
77207;BME280;66190;50.708;7.906;2023-10-08T11:03:04;97365.25;;;18.37;78.20
77207;BME280;66190;50.708;7.906;2023-10-08T11:05:37;97361.56;;;18.32;75.27
77207;BME280;66190;50.708;7.906;2023-10-08T11:08:05;97358.09;;;18.43;74.92
77207;BME280;66190;50.708;7.906;2023-10-08T11:10:33;97354.31;;;18.07;75.51
77207;BME280;66190;50.708;7.906;2023-10-08T11:12:58;97356.75;;;17.97;76.24
77207;BME280;66190;50.708;7.906;2023-10-08T11:15:28;97364.22;;;18.02;76.27
77207;BME280;66190;50.708;7.906;2023-10-08T11:18:10;97357.72;;;17.85;76.49
77207;BME280;66190;50.708;7.906;2023-10-08T11:20:36;97356.34;;;17.76;77.59
77207;BME280;66190;50.708;7.906;2023-10-08T11:26:02;97363.22;;;17.60;78.75
77207;BME280;66190;50.708;7.906;2023-10-08T11:28:36;97363.22;;;17.36;79.85
77207;BME280;66190;50.708;7.906;2023-10-08T11:31:07;97364.44;;;17.40;80.55
77207;BME280;66190;50.708;7.906;2023-10-08T11:33:38;97374.69;;;17.38;80.89
77207;BME280;66190;50.708;7.906;2023-10-08T11:36:05;97369.63;;;17.48;80.45
77207;BME280;66190;50.708;7.906;2023-10-08T11:38:44;97372.28;;;17.30;82.33
77207;BME280;66190;50.708;7.906;2023-10-08T11:41:17;97380.19;;;17.31;82.13
77207;BME280;66190;50.708;7.906;2023-10-08T11:43:51;97367.38;;;17.38;82.03
77207;BME280;66190;50.708;7.906;2023-10-08T11:46:29;97369.63;;;17.48;80.92
77207;BME280;66190;50.708;7.906;2023-10-08T11:49:10;97363.34;;;17.47;81.57
77207;BME280;66190;50.708;7.906;2023-10-08T11:51:43;97367.69;;;17.55;81.81
77207;BME280;66190;50.708;7.906;2023-10-08T11:54:09;97361.09;;;17.62;80.90
77207;BME280;66190;50.708;7.906;2023-10-08T11:56:37;97363.16;;;17.67;80.61
77207;BME280;66190;50.708;7.906;2023-10-08T11:59:04;97353.47;;;17.71;81.37
77207;BME280;66190;50.708;7.906;2023-10-08T12:01:37;97351.75;;;17.76;80.86
77207;BME280;66190;50.708;7.906;2023-10-08T12:04:03;97359.28;;;17.56;79.83
77207;BME280;66190;50.708;7.906;2023-10-08T12:06:29;97351.78;;;17.52;80.70
77207;BME280;66190;50.708;7.906;2023-10-08T12:08:58;97349.56;;;17.67;79.95
77207;BME280;66190;50.708;7.906;2023-10-08T12:11:26;97345.53;;;17.69;80.15
77207;BME280;66190;50.708;7.906;2023-10-08T12:13:58;97346.75;;;17.73;80.54
77207;BME280;66190;50.708;7.906;2023-10-08T12:16:28;97349.25;;;17.75;80.38
77207;BME280;66190;50.708;7.906;2023-10-08T12:19:01;97344.78;;;17.80;80.15
77207;BME280;66190;50.708;7.906;2023-10-08T12:21:27;97345.03;;;17.79;79.10
77207;BME280;66190;50.708;7.906;2023-10-08T12:23:55;97343.72;;;17.81;79.40
77207;BME280;66190;50.708;7.906;2023-10-08T12:26:22;97349.16;;;17.81;80.16
77207;BME280;66190;50.708;7.906;2023-10-08T12:28:48;97348.41;;;17.74;80.18
77207;BME280;66190;50.708;7.906;2023-10-08T12:31:18;97346.69;;;17.80;79.59
77207;BME280;66190;50.708;7.906;2023-10-08T12:33:50;97346.75;;;17.73;79.86
77207;BME280;66190;50.708;7.906;2023-10-08T12:36:19;97343.34;;;17.78;79.55
77207;BME280;66190;50.708;7.906;2023-10-08T12:38:48;97338.97;;;17.77;79.78
77207;BME280;66190;50.708;7.906;2023-10-08T12:41:14;97335.09;;;17.84;80.02
77207;BME280;66190;50.708;7.906;2023-10-08T12:43:41;97339.47;;;18.03;79.59
77207;BME280;66190;50.708;7.906;2023-10-08T12:46:18;97325.53;;;18.30;78.49
77207;BME280;66190;50.708;7.906;2023-10-08T12:48:46;97318.34;;;18.53;78.41
77207;BME280;66190;50.708;7.906;2023-10-08T12:51:18;97315.50;;;18.60;77.15
77207;BME280;66190;50.708;7.906;2023-10-08T12:53:44;97315.34;;;18.84;76.91
77207;BME280;66190;50.708;7.906;2023-10-08T12:56:18;97313.59;;;19.01;75.62
77207;BME280;66190;50.708;7.906;2023-10-08T12:58:50;97308.97;;;19.13;75.71
77207;BME280;66190;50.708;7.906;2023-10-08T13:01:19;97310.06;;;19.12;75.11
77207;BME280;66190;50.708;7.906;2023-10-08T13:03:45;97315.47;;;18.89;74.43
77207;BME280;66190;50.708;7.906;2023-10-08T13:06:18;97312.50;;;18.79;74.81
77207;BME280;66190;50.708;7.906;2023-10-08T13:08:51;97315.03;;;19.04;74.84
77207;BME280;66190;50.708;7.906;2023-10-08T13:11:21;97306.50;;;19.12;74.79
77207;BME280;66190;50.708;7.906;2023-10-08T13:13:52;97299.75;;;19.26;75.07
77207;BME280;66190;50.708;7.906;2023-10-08T13:16:19;97305.09;;;19.21;73.96
77207;BME280;66190;50.708;7.906;2023-10-08T13:18:49;97305.81;;;19.28;74.26
77207;BME280;66190;50.708;7.906;2023-10-08T13:21:16;97304.13;;;19.15;74.60
77207;BME280;66190;50.708;7.906;2023-10-08T13:23:42;97306.50;;;19.12;75.83
77207;BME280;66190;50.708;7.906;2023-10-08T13:26:08;97314.78;;;19.05;76.58
77207;BME280;66190;50.708;7.906;2023-10-08T13:28:36;97312.50;;;18.91;76.01
77207;BME280;66190;50.708;7.906;2023-10-08T13:31:03;97318.19;;;18.89;76.84
77207;BME280;66190;50.708;7.906;2023-10-08T13:33:38;97304.19;;;18.86;76.78
77207;BME280;66190;50.708;7.906;2023-10-08T13:36:05;97313.03;;;18.70;76.22